Time;durP1;ratioP1;P1;durP2;ratioP2;P2;SDS_P1;SDS_P2;PMS_P1;PMS_P2;Temp;Humidity;BMP_temperature;BMP_pressure;BME280_temperature;BME280_humidity;BME280_pressure;Samples;Min_cycle;Max_cycle;Signal;HPM_P1;HPM_P2
2021/08/06 00:01:40;;;;;;;;;3.00;3.00;;;;;21.13;60.54;97157.44;6088085;28;97236;-60
2021/08/06 00:04:43;;;;;;;;;5.00;3.00;;;;;21.09;61.16;97168.25;6090699;28;97111;-59
2021/08/06 00:07:48;;;;;;;;;4.00;3.80;;;;;21.07;60.84;97159.56;6090781;28;96634;-58
2021/08/06 00:10:52;;;;;;;;;2.00;2.00;;;;;21.11;60.73;97160.50;6089321;28;97602;-59
2021/08/06 00:13:58;;;;;;;;;2.00;2.00;;;;;21.18;60.92;97160.81;6091384;28;96522;-59
2021/08/06 00:17:02;;;;;;;;;3.00;3.00;;;;;21.15;60.61;97160.69;6090127;28;96510;-59
2021/08/06 00:20:07;;;;;;;;;2.00;2.00;;;;;21.21;60.55;97159.34;6092031;28;97485;-57
2021/08/06 00:23:12;;;;;;;;;3.60;3.60;;;;;21.11;60.82;97157.75;6089701;28;97609;-58
2021/08/06 00:26:16;;;;;;;;;3.60;3.60;;;;;21.11;60.91;97156.97;6088443;28;96920;-57
2021/08/06 00:29:19;;;;;;;;;3.00;3.00;;;;;21.07;60.53;97165.03;6064479;28;96740;-59
2021/08/06 00:32:23;;;;;;;;;3.00;3.00;;;;;21.10;60.96;97164.38;6064444;28;97442;-57
2021/08/06 00:35:29;;;;;;;;;4.00;4.00;;;;;21.15;60.60;97163.41;6073728;28;97402;-59
2021/08/06 00:38:35;;;;;;;;;4.00;4.00;;;;;21.17;60.47;97166.63;6073026;28;96558;-59
2021/08/06 00:41:40;;;;;;;;;4.00;4.00;;;;;21.12;60.73;97167.56;6072481;28;97462;-58
2021/08/06 00:44:44;;;;;;;;;3.00;3.00;;;;;21.01;61.00;97165.56;6071030;28;98079;-58
2021/08/06 00:47:47;;;;;;;;;4.00;4.00;;;;;21.02;61.00;97162.47;6072975;28;97414;-58
2021/08/06 00:50:54;;;;;;;;;3.40;3.40;;;;;21.03;60.48;97172.31;6077731;28;97261;-58
2021/08/06 00:54:00;;;;;;;;;3.00;3.00;;;;;20.97;60.58;97173.63;6067222;28;97381;-58
2021/08/06 00:57:18;;;;;;;;;3.80;3.00;;;;;20.96;60.62;97165.75;6088884;28;96751;-58
2021/08/06 01:00:30;;;;;;;;;3.00;2.00;;;;;20.85;61.25;97179.03;6069231;28;97105;-58
2021/08/06 01:03:47;;;;;;;;;3.00;2.80;;;;;20.86;61.19;97177.09;6063973;28;97645;-59
2021/08/06 01:06:56;;;;;;;;;1.40;1.00;;;;;20.79;61.09;97177.59;6072161;28;97900;-58
2021/08/06 01:10:08;;;;;;;;;2.00;1.40;;;;;20.77;61.00;97182.59;6067807;28;99008;-58
2021/08/06 01:13:27;;;;;;;;;3.00;3.00;;;;;20.64;61.31;97178.94;6072711;28;97109;-58
2021/08/06 01:16:35;;;;;;;;;2.40;2.40;;;;;20.76;61.15;97186.47;6071202;28;98623;-58
2021/08/06 01:20:05;;;;;;;;;4.00;3.00;;;;;20.69;61.00;97188.91;6072164;28;96931;-58
2021/08/06 01:23:16;;;;;;;;;3.20;3.00;;;;;20.68;61.37;97174.41;6072738;28;97013;-58
2021/08/06 01:26:26;;;;;;;;;2.75;2.00;;;;;20.63;61.60;97187.47;6075901;28;97621;-59
2021/08/06 01:29:32;;;;;;;;;4.00;3.00;;;;;20.77;60.86;97190.78;6072343;28;97540;-58
2021/08/06 01:32:41;;;;;;;;;4.00;3.00;;;;;20.74;61.31;97189.53;6071046;28;97774;-59
2021/08/06 01:35:50;;;;;;;;;3.00;3.00;;;;;20.75;60.89;97190.34;6079226;28;96865;-58
2021/08/06 01:38:54;;;;;;;;;4.00;4.00;;;;;20.66;60.78;97192.31;6075638;28;96517;-58
2021/08/06 01:42:12;;;;;;;;;2.00;2.00;;;;;20.83;60.80;97194.97;6075878;28;97468;-58
2021/08/06 01:45:24;;;;;;;;;3.00;3.00;;;;;20.86;61.06;97199.81;6092120;28;97226;-59
2021/08/06 01:48:35;;;;;;;;;2.40;2.40;;;;;20.77;60.43;97205.28;6094136;28;97392;-58
2021/08/06 01:51:49;;;;;;;;;4.00;3.00;;;;;20.83;60.70;97205.91;6074777;28;96696;-59
2021/08/06 01:54:55;;;;;;;;;3.00;3.00;;;;;20.79;61.12;97204.16;6075447;28;96738;-59
2021/08/06 01:58:09;;;;;;;;;3.20;3.00;;;;;20.73;60.73;97198.06;6075061;28;98732;-60
2021/08/06 02:01:19;;;;;;;;;3.00;3.00;;;;;20.78;60.79;97206.09;6074420;28;96698;-58
2021/08/06 02:04:38;;;;;;;;;3.00;2.20;;;;;20.70;61.21;97210.50;6075076;28;97191;-59
2021/08/06 02:07:50;;;;;;;;;2.00;2.00;;;;;20.83;61.00;97208.66;6072267;28;97495;-58
2021/08/06 02:10:58;;;;;;;;;4.00;4.00;;;;;20.68;60.68;97209.19;6075323;28;97003;-60
2021/08/06 02:14:12;;;;;;;;;4.00;4.00;;;;;20.68;60.98;97207.25;6075167;28;96586;-59
2021/08/06 02:17:20;;;;;;;;;4.00;3.00;;;;;20.61;60.72;97184.28;6075854;28;96643;-60
2021/08/06 02:20:26;;;;;;;;;3.00;3.00;;;;;20.80;60.88;97208.53;6075049;28;97574;-59
2021/08/06 02:23:35;;;;;;;;;4.00;3.40;;;;;20.65;60.67;97204.38;6061227;28;96846;-58
2021/08/06 02:26:43;;;;;;;;;5.00;5.00;;;;;20.64;60.86;97208.25;6072539;28;97628;-61
2021/08/06 02:29:55;;;;;;;;;3.00;3.00;;;;;20.61;61.27;97203.44;6067783;28;97435;-60
2021/08/06 02:33:01;;;;;;;;;3.00;3.00;;;;;20.72;61.23;97210.19;6074903;28;97205;-59
2021/08/06 02:36:05;;;;;;;;;3.00;3.00;;;;;20.54;61.15;97209.41;6074851;28;97405;-58
2021/08/06 02:39:14;;;;;;;;;3.00;3.00;;;;;20.47;61.67;97213.78;6084210;28;97082;-58
2021/08/06 02:42:20;;;;;;;;;3.00;3.00;;;;;20.48;61.49;97218.09;6086215;28;97010;-60
2021/08/06 02:45:25;;;;;;;;;2.80;2.80;;;;;20.52;61.45;97216.34;6082921;28;97066;-59
2021/08/06 02:48:28;;;;;;;;;3.40;3.00;;;;;20.52;61.38;97211.69;6075281;28;97529;-60
2021/08/06 02:51:32;;;;;;;;;3.20;3.20;;;;;20.66;61.31;97214.22;6075070;28;96600;-60
2021/08/06 02:54:36;;;;;;;;;2.40;2.00;;;;;20.66;61.18;97219.69;6071468;28;97594;-59
2021/08/06 02:57:42;;;;;;;;;3.00;3.00;;;;;20.54;60.53;97217.63;6075643;28;96782;-59
2021/08/06 03:00:48;;;;;;;;;3.00;3.00;;;;;20.66;61.05;97222.44;6074203;28;97614;-59
2021/08/06 03:03:53;;;;;;;;;3.00;3.00;;;;;20.64;60.29;97228.22;6055259;28;97119;-60
2021/08/06 03:06:57;;;;;;;;;3.40;3.40;;;;;20.66;60.63;97231.44;6074232;28;98019;-58
2021/08/06 03:10:01;;;;;;;;;2.80;2.80;;;;;20.67;60.68;97229.53;6067375;28;97324;-58
2021/08/06 03:13:05;;;;;;;;;3.00;3.00;;;;;20.59;60.42;97233.88;6074661;28;97084;-59
2021/08/06 03:16:11;;;;;;;;;3.60;3.60;;;;;20.52;60.49;97238.25;6070656;28;97217;-58
2021/08/06 03:19:15;;;;;;;;;4.00;3.00;;;;;20.56;61.00;97240.00;6081627;28;97609;-60
2021/08/06 03:22:19;;;;;;;;;4.40;4.00;;;;;20.61;60.42;97242.56;6082139;28;97451;-61
2021/08/06 03:25:22;;;;;;;;;4.00;4.00;;;;;20.58;60.69;97243.22;6073278;28;97484;-59
2021/08/06 03:28:28;;;;;;;;;3.00;3.00;;;;;20.56;60.73;97237.28;6080933;28;97874;-60
2021/08/06 03:31:33;;;;;;;;;4.00;4.00;;;;;20.56;60.26;97255.63;6076151;28;97377;-58
2021/08/06 03:34:37;;;;;;;;;4.00;3.00;;;;;20.47;60.81;97247.44;6072167;28;96587;-61
2021/08/06 03:37:41;;;;;;;;;3.00;3.00;;;;;20.48;60.75;97254.50;6065752;28;97535;-59
2021/08/06 03:40:46;;;;;;;;;3.40;3.00;;;;;20.55;60.35;97249.34;6066494;28;97636;-58
2021/08/06 03:43:49;;;;;;;;;3.00;3.00;;;;;20.64;60.34;97254.78;6087795;28;97423;-58
2021/08/06 03:46:54;;;;;;;;;4.20;4.00;;;;;20.69;60.15;97260.09;6086130;28;96996;-60
2021/08/06 03:49:57;;;;;;;;;4.20;4.00;;;;;20.72;60.08;97262.19;6090329;28;97470;-58
2021/08/06 03:53:01;;;;;;;;;4.20;4.20;;;;;20.54;59.44;97263.34;6071202;28;97423;-60
2021/08/06 03:56:05;;;;;;;;;5.00;5.00;;;;;20.59;60.12;97266.72;6068830;28;97590;-58
2021/08/06 03:59:09;;;;;;;;;4.00;4.00;;;;;20.44;60.13;97269.97;6071454;28;97157;-59
2021/08/06 04:02:14;;;;;;;;;5.00;4.00;;;;;20.48;59.96;97273.66;6068684;28;97173;-58
2021/08/06 04:05:18;;;;;;;;;4.00;3.40;;;;;20.49;59.63;97286.22;6090271;28;96737;-58
2021/08/06 04:08:22;;;;;;;;;5.00;5.00;;;;;20.37;59.60;97277.88;6056293;28;101101;-59
2021/08/06 04:11:31;;;;;;;;;4.60;4.60;;;;;20.30;59.82;97277.53;6072214;28;98671;-58
2021/08/06 04:14:34;;;;;;;;;5.00;5.00;;;;;20.30;59.97;97277.53;6090417;28;96448;-58
2021/08/06 04:17:39;;;;;;;;;4.00;4.00;;;;;20.33;59.87;97291.41;6090782;28;96968;-60
2021/08/06 04:20:43;;;;;;;;;4.00;4.00;;;;;20.10;59.91;97289.94;6089224;28;97194;-59
2021/08/06 04:23:46;;;;;;;;;4.00;4.00;;;;;20.20;60.02;97289.59;6072880;28;96806;-60
2021/08/06 04:26:50;;;;;;;;;3.00;3.00;;;;;20.22;60.18;97298.31;6073498;28;96786;-59
2021/08/06 04:29:54;;;;;;;;;3.60;3.60;;;;;20.18;59.94;97297.31;6089206;28;97758;-59
2021/08/06 04:32:58;;;;;;;;;4.00;4.00;;;;;20.23;59.51;97301.84;6089447;28;98512;-59
2021/08/06 04:36:02;;;;;;;;;4.00;4.00;;;;;20.20;59.56;97306.03;6072484;28;97494;-59
2021/08/06 04:39:08;;;;;;;;;4.00;4.00;;;;;20.13;60.13;97302.19;6069194;28;97284;-58
2021/08/06 04:42:12;;;;;;;;;3.40;3.00;;;;;20.08;60.30;97307.81;6069772;28;99025;-58
2021/08/06 04:45:15;;;;;;;;;3.00;2.00;;;;;20.19;59.46;97309.06;6090576;28;96498;-59
2021/08/06 04:48:21;;;;;;;;;4.00;4.00;;;;;20.22;59.68;97306.53;6072150;28;97235;-60
2021/08/06 04:51:25;;;;;;;;;4.00;4.00;;;;;20.23;59.79;97310.06;6077172;28;96464;-59
2021/08/06 04:54:30;;;;;;;;;3.40;3.40;;;;;20.13;60.11;97321.34;6073192;28;96798;-58
2021/08/06 04:57:34;;;;;;;;;3.00;3.00;;;;;20.10;59.71;97317.28;6093335;28;97556;-58
2021/08/06 05:00:37;;;;;;;;;5.00;4.00;;;;;20.17;60.20;97327.75;6076684;28;97886;-59
2021/08/06 05:03:47;;;;;;;;;3.40;3.00;;;;;20.19;60.18;97331.78;6074055;28;97498;-58
2021/08/06 05:06:50;;;;;;;;;4.00;4.00;;;;;20.21;59.96;97332.28;6071587;28;96751;-59
2021/08/06 05:09:54;;;;;;;;;5.00;4.00;;;;;20.22;59.57;97342.09;6083975;28;98110;-58
2021/08/06 05:12:57;;;;;;;;;3.80;3.00;;;;;20.24;59.55;97347.22;6087824;28;96836;-59
2021/08/06 05:16:01;;;;;;;;;4.00;4.00;;;;;20.18;60.01;97348.53;6071422;28;98332;-60
2021/08/06 05:19:06;;;;;;;;;3.20;3.00;;;;;20.15;59.87;97346.41;6089556;28;97605;-59
2021/08/06 05:22:10;;;;;;;;;4.00;4.00;;;;;20.13;60.52;97348.69;6079760;28;97014;-60
2021/08/06 05:25:14;;;;;;;;;3.00;3.00;;;;;20.16;60.22;97353.50;6070533;28;97539;-60
2021/08/06 05:28:17;;;;;;;;;3.00;3.00;;;;;20.24;60.13;97353.50;6070063;28;97622;-60
2021/08/06 05:31:22;;;;;;;;;3.00;3.00;;;;;20.13;60.00;97354.16;6089567;28;97231;-60
2021/08/06 05:34:27;;;;;;;;;3.00;2.60;;;;;20.25;60.49;97354.31;6074193;28;97596;-59
2021/08/06 05:37:31;;;;;;;;;3.00;3.00;;;;;20.21;60.05;97356.09;6076099;28;97530;-61
2021/08/06 05:40:35;;;;;;;;;4.00;3.20;;;;;20.19;60.17;97361.06;6075725;28;97461;-58
2021/08/06 05:43:42;;;;;;;;;4.20;3.80;;;;;20.10;60.48;97363.00;6076182;28;96862;-61
2021/08/06 05:46:45;;;;;;;;;4.00;3.80;;;;;20.14;60.21;97375.72;6075520;28;97427;-61
2021/08/06 05:49:52;;;;;;;;;5.60;5.40;;;;;20.23;60.36;97368.31;6075492;28;96606;-60
2021/08/06 05:52:56;;;;;;;;;3.00;3.00;;;;;20.16;60.05;97369.91;6075494;28;98541;-59
2021/08/06 05:56:00;;;;;;;;;5.00;5.00;;;;;20.10;60.25;97382.13;6067803;28;97477;-59
2021/08/06 05:59:12;;;;;;;;;5.00;5.00;;;;;20.07;60.76;97380.06;6070634;28;96815;-60
2021/08/06 06:02:15;;;;;;;;;5.00;5.00;;;;;20.14;60.26;97389.38;6082801;28;96468;-60
2021/08/06 06:05:38;;;;;;;;;5.00;5.00;;;;;20.14;60.29;97386.66;6075641;28;97366;-60
2021/08/06 06:08:41;;;;;;;;;5.00;4.75;;;;;20.14;60.37;97378.44;6077428;28;97395;-60
2021/08/06 06:11:44;;;;;;;;;6.00;5.00;;;;;20.22;60.38;97385.06;6067370;28;96777;-61
2021/08/06 06:14:48;;;;;;;;;4.50;4.50;;;;;20.37;60.49;97406.53;6072070;28;96621;-57
2021/08/06 06:17:52;;;;;;;;;4.40;4.40;;;;;20.44;59.83;97390.41;6079385;28;96554;-60
2021/08/06 06:20:57;;;;;;;;;6.00;5.00;;;;;20.42;59.73;97395.41;6072162;28;96860;-60
2021/08/06 06:24:00;;;;;;;;;6.40;6.00;;;;;20.37;60.32;97394.78;6067200;28;97020;-59
2021/08/06 06:27:05;;;;;;;;;5.00;5.00;;;;;20.25;60.17;97398.09;6085023;28;97515;-59
2021/08/06 06:30:10;;;;;;;;;6.80;6.00;;;;;20.21;60.24;97397.94;6074820;28;96541;-60
2021/08/06 06:33:14;;;;;;;;;4.00;4.00;;;;;20.24;60.83;97423.84;6059780;28;97285;-59
2021/08/06 06:36:20;;;;;;;;;4.00;4.00;;;;;20.26;60.84;97402.44;6074141;28;97481;-59
2021/08/06 06:39:24;;;;;;;;;4.00;4.00;;;;;20.24;60.66;97405.50;6087204;28;96884;-59
2021/08/06 06:42:31;;;;;;;;;6.00;5.00;;;;;20.31;60.80;97405.88;6083467;28;97981;-58
2021/08/06 06:45:35;;;;;;;;;5.25;5.00;;;;;20.44;60.26;97408.75;6067415;28;97464;-59
2021/08/06 06:48:39;;;;;;;;;5.00;4.00;;;;;20.36;59.81;97404.09;6073296;28;98810;-59
2021/08/06 06:51:45;;;;;;;;;5.00;4.00;;;;;20.37;59.79;97412.00;6075143;28;97436;-59
2021/08/06 06:54:49;;;;;;;;;4.80;4.80;;;;;20.21;60.18;97417.09;6070786;28;97030;-59
2021/08/06 06:57:56;;;;;;;;;2.50;2.50;;;;;20.26;59.67;97424.34;6091696;28;97595;-59
2021/08/06 07:01:00;;;;;;;;;5.00;4.00;;;;;20.21;59.44;97424.50;6075317;28;97231;-59
2021/08/06 07:04:04;;;;;;;;;3.00;3.00;;;;;20.25;59.07;97437.22;6074576;28;97233;-58
2021/08/06 07:07:09;;;;;;;;;5.00;5.00;;;;;20.17;59.29;97438.00;6075080;28;96509;-59
2021/08/06 07:10:13;;;;;;;;;4.00;3.00;;;;;20.22;59.02;97451.56;6091497;28;97177;-58
2021/08/06 07:13:17;;;;;;;;;6.00;6.00;;;;;20.28;59.06;97460.41;6073414;28;97395;-59
2021/08/06 07:16:20;;;;;;;;;4.00;4.00;;;;;20.09;58.98;97455.19;6072406;28;97273;-58
2021/08/06 07:19:25;;;;;;;;;5.00;5.00;;;;;20.21;58.89;97460.06;6074915;28;96613;-59
2021/08/06 07:22:31;;;;;;;;;5.00;5.00;;;;;20.24;58.63;97462.16;6073333;28;96722;-60
2021/08/06 07:25:34;;;;;;;;;4.00;3.80;;;;;20.22;58.83;97467.97;6091415;28;96673;-59
2021/08/06 07:28:43;;;;;;;;;5.00;4.00;;;;;20.26;58.67;97462.66;6074760;28;96668;-58
2021/08/06 07:31:47;;;;;;;;;5.00;4.00;;;;;20.17;59.20;97475.50;6074707;28;97582;-58
2021/08/06 07:34:50;;;;;;;;;4.20;4.00;;;;;20.14;58.93;97471.47;6073709;28;97102;-58
2021/08/06 07:37:56;;;;;;;;;4.40;4.00;;;;;20.18;59.19;97488.06;6073094;28;97589;-59
2021/08/06 07:40:59;;;;;;;;;4.00;4.00;;;;;20.22;59.28;97486.31;6073359;28;97276;-58
2021/08/06 07:44:04;;;;;;;;;5.00;5.00;;;;;20.19;59.27;97454.91;6073452;28;96662;-59
2021/08/06 07:47:09;;;;;;;;;4.00;4.00;;;;;20.49;59.60;97497.03;6073145;28;96659;-59
2021/08/06 07:50:17;;;;;;;;;5.20;4.60;;;;;20.44;59.62;97488.16;6073226;28;97860;-59
2021/08/06 07:53:22;;;;;;;;;5.00;5.00;;;;;20.33;59.66;97475.91;6073184;28;97376;-59
2021/08/06 07:56:26;;;;;;;;;4.00;4.00;;;;;20.35;59.52;97492.81;6061973;28;96586;-58
2021/08/06 07:59:29;;;;;;;;;4.00;4.00;;;;;20.30;59.68;97494.56;6089335;28;97648;-59
2021/08/06 08:02:34;;;;;;;;;4.20;4.00;;;;;20.17;59.95;97487.28;6073484;28;97322;-59
2021/08/06 08:05:37;;;;;;;;;4.00;3.00;;;;;20.41;59.87;97506.03;6072819;28;97379;-58
2021/08/06 08:08:46;;;;;;;;;3.00;3.00;;;;;20.51;59.65;97508.47;6073946;28;96738;-60
2021/08/06 08:11:50;;;;;;;;;4.00;4.00;;;;;20.58;59.43;97519.75;6074621;28;97518;-60
2021/08/06 08:14:53;;;;;;;;;4.00;4.00;;;;;20.59;59.33;97518.63;6090298;28;97560;-60
2021/08/06 08:17:58;;;;;;;;;6.00;5.40;;;;;20.66;59.70;97515.41;6072988;28;99014;-60
2021/08/06 08:21:02;;;;;;;;;6.00;5.80;;;;;20.70;59.51;97525.41;6070103;28;97485;-60
2021/08/06 08:24:08;;;;;;;;;4.00;4.00;;;;;20.73;59.66;97523.94;6078286;28;96742;-60
2021/08/06 08:27:16;;;;;;;;;5.00;4.00;;;;;20.74;59.10;97520.09;6071705;28;97605;-60
2021/08/06 08:30:20;;;;;;;;;5.40;5.00;;;;;20.77;59.41;97526.88;6084639;28;97714;-60
2021/08/06 08:33:24;;;;;;;;;4.00;4.00;;;;;20.81;59.28;97522.38;6071793;28;96748;-56
2021/08/06 08:36:29;;;;;;;;;4.00;4.00;;;;;20.72;59.22;97523.13;6072538;28;97515;-58
2021/08/06 08:39:34;;;;;;;;;5.00;5.00;;;;;20.87;59.02;97518.31;6073616;28;97375;-58
2021/08/06 08:42:38;;;;;;;;;6.00;6.00;;;;;21.01;58.95;97521.72;6089743;28;97831;-57
2021/08/06 08:45:43;;;;;;;;;5.00;5.00;;;;;21.13;58.67;97530.09;6071395;28;97185;-57
2021/08/06 08:48:48;;;;;;;;;5.00;5.00;;;;;21.34;57.96;97539.31;6073523;28;96882;-58
2021/08/06 08:51:52;;;;;;;;;7.00;6.40;;;;;21.40;57.83;97537.22;6072991;28;97401;-59
2021/08/06 08:54:57;;;;;;;;;6.00;6.00;;;;;21.27;57.95;97543.66;6089586;28;97454;-58
2021/08/06 08:58:01;;;;;;;;;7.00;7.00;;;;;21.38;57.73;97543.00;6067178;28;97651;-58
2021/08/06 09:01:04;;;;;;;;;5.00;5.00;;;;;21.36;57.92;97545.25;6072278;28;97103;-59
2021/08/06 09:04:22;;;;;;;;;5.60;5.60;;;;;21.45;57.33;97543.31;6072684;28;97407;-58
2021/08/06 09:07:30;;;;;;;;;7.00;6.00;;;;;21.56;57.16;97552.00;6089702;28;98741;-57
2021/08/06 09:10:53;;;;;;;;;7.20;6.00;;;;;21.90;56.80;97553.88;6089835;28;97452;-59
2021/08/06 09:14:24;;;;;;;;;7.00;7.00;;;;;22.00;56.41;97557.09;6072625;28;97638;-58
2021/08/06 09:17:27;;;;;;;;;8.00;7.80;;;;;21.90;56.37;97548.38;6087536;28;97067;-61
2021/08/06 09:20:39;;;;;;;;;7.00;7.00;;;;;21.81;56.61;97548.41;6089573;28;97579;-58
2021/08/06 09:23:46;;;;;;;;;9.00;7.75;;;;;21.99;56.26;97552.75;6087800;28;96645;-58
2021/08/06 09:26:50;;;;;;;;;8.40;8.00;;;;;22.31;54.98;97556.81;6089965;28;98594;-58
2021/08/06 09:29:54;;;;;;;;;7.00;7.00;;;;;22.50;54.44;97550.09;6088757;28;97240;-58
2021/08/06 09:32:58;;;;;;;;;9.00;8.60;;;;;22.70;54.40;97552.09;6085712;28;96940;-59
2021/08/06 09:36:10;;;;;;;;;8.00;8.00;;;;;22.86;53.35;97559.47;6088410;28;97162;-58
2021/08/06 09:39:14;;;;;;;;;7.00;7.00;;;;;22.93;53.04;97563.59;6087224;28;96593;-58
2021/08/06 09:42:48;;;;;;;;;7.00;7.00;;;;;22.94;53.23;97559.72;6093090;28;97194;-58
2021/08/06 09:45:52;;;;;;;;;6.00;6.00;;;;;23.04;53.18;97567.56;6090885;28;97374;-58
2021/08/06 09:49:06;;;;;;;;;9.75;8.00;;;;;23.07;53.05;97572.41;6092162;28;98056;-58
2021/08/06 09:52:10;;;;;;;;;7.00;7.00;;;;;23.17;52.79;97566.50;6090757;28;97547;-57
2021/08/06 09:55:21;;;;;;;;;7.75;7.75;;;;;23.19;52.87;97562.28;6092565;28;97522;-59
2021/08/06 09:58:25;;;;;;;;;6.00;6.00;;;;;23.43;53.18;97558.84;6075788;28;97161;-57
2021/08/06 10:01:29;;;;;;;;;9.80;8.80;;;;;23.58;51.93;97552.75;6080395;28;97735;-58
2021/08/06 10:04:33;;;;;;;;;7.00;6.60;;;;;23.72;51.22;97563.44;6094051;28;98162;-58
2021/08/06 10:07:40;;;;;;;;;8.00;7.00;;;;;23.69;49.84;97570.44;6083994;28;98180;-57
2021/08/06 10:10:45;;;;;;;;;7.40;7.00;;;;;23.77;49.99;97568.75;6085030;28;97661;-58
2021/08/06 10:13:50;;;;;;;;;6.00;6.00;;;;;23.74;49.72;97575.75;6079376;28;97051;-58
2021/08/06 10:16:55;;;;;;;;;6.00;5.40;;;;;23.91;49.50;97576.69;6089435;28;96778;-58
2021/08/06 10:19:58;;;;;;;;;4.60;4.00;;;;;24.09;49.78;97572.63;6081534;28;98108;-60
2021/08/06 10:23:04;;;;;;;;;6.00;6.00;;;;;24.51;49.04;97582.34;6089294;28;96725;-60
2021/08/06 10:26:09;;;;;;;;;7.00;7.00;;;;;24.44;47.99;97554.53;6092752;28;96549;-59
2021/08/06 10:29:15;;;;;;;;;7.00;7.00;;;;;24.53;48.31;97582.00;6087033;28;97358;-60
2021/08/06 10:32:18;;;;;;;;;7.60;7.60;;;;;24.15;48.31;97587.75;6083703;28;97464;-57
2021/08/06 10:35:21;;;;;;;;;7.00;7.00;;;;;24.00;48.98;97585.66;6075943;28;97198;-58
2021/08/06 10:38:38;;;;;;;;;8.80;8.00;;;;;23.56;49.62;97593.53;6076631;28;96746;-59
2021/08/06 10:41:50;;;;;;;;;8.00;8.00;;;;;23.31;50.74;97594.56;6068252;28;97097;-59
2021/08/06 10:44:58;;;;;;;;;8.00;8.00;;;;;23.22;51.38;97599.28;6084154;28;97093;-57
2021/08/06 10:48:01;;;;;;;;;7.40;7.00;;;;;23.04;51.19;97604.13;6078639;28;97462;-58
2021/08/06 10:51:34;;;;;;;;;7.00;7.00;;;;;22.83;52.92;97598.59;6076588;28;97217;-57
2021/08/06 10:54:44;;;;;;;;;7.60;7.60;;;;;22.61;53.31;97606.28;6068607;28;98851;-58
2021/08/06 10:57:48;;;;;;;;;10.00;9.00;;;;;22.48;53.59;97601.84;6081659;28;98111;-59
2021/08/06 11:00:53;;;;;;;;;9.00;9.00;;;;;22.39;54.50;97605.41;6082912;28;97232;-58
2021/08/06 11:03:59;;;;;;;;;9.00;8.50;;;;;22.33;54.44;97625.16;6081882;28;97961;-58
2021/08/06 11:07:04;;;;;;;;;8.50;8.00;;;;;22.29;54.93;97622.22;6073781;28;97473;-58
2021/08/06 11:10:10;;;;;;;;;6.00;6.00;;;;;22.07;53.97;97630.72;6091309;28;98266;-58
2021/08/06 11:13:53;;;;;;;;;6.00;5.80;;;;;22.00;52.75;97642.19;6075137;28;96785;-58
2021/08/06 11:17:06;;;;;;;;;5.00;5.00;;;;;21.87;53.48;97639.59;6087217;28;97521;-59
2021/08/06 11:20:13;;;;;;;;;4.00;4.00;;;;;21.85;52.84;97634.41;6081498;28;96673;-60
2021/08/06 11:23:17;;;;;;;;;5.00;5.00;;;;;21.81;53.46;97633.47;6085018;28;97279;-59
2021/08/06 11:26:20;;;;;;;;;4.00;4.00;;;;;21.90;53.29;97631.50;6082374;28;97606;-58
2021/08/06 11:29:23;;;;;;;;;4.00;3.00;;;;;21.88;53.17;97632.97;6078345;28;96724;-57
2021/08/06 11:32:31;;;;;;;;;4.00;4.00;;;;;22.08;53.39;97635.06;6090586;28;97132;-58
2021/08/06 11:35:36;;;;;;;;;3.00;3.00;;;;;22.50;51.98;97644.28;6092080;28;97270;-60
2021/08/06 11:38:39;;;;;;;;;2.75;2.75;;;;;22.85;50.55;97640.28;6091021;28;96492;-57
2021/08/06 11:41:50;;;;;;;;;3.00;2.00;;;;;23.21;50.24;97636.19;6090506;28;96493;-58
2021/08/06 11:44:55;;;;;;;;;3.00;3.00;;;;;23.58;49.59;97628.97;6091189;28;96606;-57
2021/08/06 11:48:02;;;;;;;;;5.00;4.60;;;;;23.77;47.86;97639.50;6089135;28;97181;-57
2021/08/06 11:51:06;;;;;;;;;3.00;3.00;;;;;24.03;48.11;97646.38;6090447;28;97488;-58
2021/08/06 11:54:10;;;;;;;;;2.00;2.00;;;;;24.27;47.41;97639.34;6090761;28;97587;-58
2021/08/06 11:57:13;;;;;;;;;3.20;2.60;;;;;24.49;47.24;97636.97;6073751;28;97456;-58
2021/08/06 12:00:19;;;;;;;;;4.25;3.00;;;;;24.54;46.59;97652.47;6076766;28;97581;-57
2021/08/06 12:03:24;;;;;;;;;3.00;3.00;;;;;24.42;46.61;97645.00;6084572;28;97534;-57
2021/08/06 12:06:28;;;;;;;;;3.00;3.00;;;;;24.40;47.05;97649.22;6089229;28;96842;-58
2021/08/06 12:09:31;;;;;;;;;2.40;2.40;;;;;24.30;47.02;97653.22;6074505;28;97326;-58
2021/08/06 12:12:35;;;;;;;;;3.25;3.00;;;;;24.13;46.96;97650.66;6074729;28;96666;-58
2021/08/06 12:15:39;;;;;;;;;3.60;3.60;;;;;23.89;47.05;97645.06;6080923;28;97525;-58
2021/08/06 12:18:47;;;;;;;;;4.00;4.00;;;;;23.99;46.30;97652.91;6069252;28;96832;-58
2021/08/06 12:21:53;;;;;;;;;4.00;3.00;;;;;23.83;47.12;97646.41;6089496;28;96849;-57
2021/08/06 12:25:10;;;;;;;;;4.00;3.00;;;;;23.80;47.75;97656.13;6073025;28;97746;-58
2021/08/06 12:28:21;;;;;;;;;5.00;5.00;;;;;23.65;48.01;97660.28;6089809;28;97475;-58
2021/08/06 12:31:27;;;;;;;;;5.00;5.00;;;;;23.30;48.50;97673.50;6074817;28;96916;-60
2021/08/06 12:34:34;;;;;;;;;4.60;4.60;;;;;23.23;49.17;97675.16;6074017;28;96483;-61
2021/08/06 12:37:38;;;;;;;;;6.00;5.50;;;;;23.00;49.73;97674.66;6081288;28;97133;-59
2021/08/06 12:40:43;;;;;;;;;4.00;4.00;;;;;22.93;49.41;97677.09;6083420;28;96442;-59
2021/08/06 12:43:47;;;;;;;;;4.00;3.00;;;;;22.87;49.60;97673.72;6078987;28;97246;-57
2021/08/06 12:47:03;;;;;;;;;3.75;3.75;;;;;23.00;48.96;97677.41;6070110;28;98456;-58
2021/08/06 12:50:08;;;;;;;;;5.00;5.00;;;;;23.03;49.13;97678.66;6086346;28;97530;-58
2021/08/06 12:53:13;;;;;;;;;4.00;4.00;;;;;23.07;49.22;97680.41;6084899;28;96716;-57
2021/08/06 12:56:16;;;;;;;;;4.00;3.00;;;;;23.07;48.50;97685.91;6088148;28;97121;-57
2021/08/06 12:59:22;;;;;;;;;5.40;5.00;;;;;23.04;49.87;97680.28;6087723;28;96845;-57
2021/08/06 13:02:25;;;;;;;;;5.40;5.40;;;;;23.16;50.00;97688.63;6070685;28;96939;-58
2021/08/06 13:05:32;;;;;;;;;5.00;5.00;;;;;23.42;49.24;97688.44;6088398;28;97441;-57
2021/08/06 13:08:42;;;;;;;;;6.00;5.00;;;;;23.68;48.72;97692.66;6085984;28;97111;-57
2021/08/06 13:12:06;;;;;;;;;4.00;4.00;;;;;23.74;48.02;97691.31;6091589;28;96593;-58
2021/08/06 13:15:13;;;;;;;;;6.00;5.00;;;;;23.57;47.83;97693.38;6088877;28;97520;-58
2021/08/06 13:18:16;;;;;;;;;6.00;6.00;;;;;23.69;48.05;97694.28;6089635;28;97391;-58
2021/08/06 13:21:21;;;;;;;;;4.00;4.00;;;;;23.70;47.09;97697.84;6090224;28;97390;-58
2021/08/06 13:24:24;;;;;;;;;5.40;4.60;;;;;24.12;45.96;97690.31;6090791;28;96960;-57
2021/08/06 13:27:28;;;;;;;;;3.00;3.00;;;;;24.43;45.36;97703.66;6090307;28;96715;-58
2021/08/06 13:30:31;;;;;;;;;3.00;3.00;;;;;24.51;44.38;97673.25;6089135;28;97182;-59
2021/08/06 13:33:36;;;;;;;;;4.00;4.00;;;;;24.97;43.63;97712.63;6091517;28;97486;-59
2021/08/06 13:36:40;;;;;;;;;4.40;4.00;;;;;25.12;43.52;97708.38;6092662;28;96757;-58
2021/08/06 13:39:44;;;;;;;;;6.00;6.00;;;;;25.23;43.86;97712.25;6092844;28;97051;-59
2021/08/06 13:42:47;;;;;;;;;4.00;3.00;;;;;25.33;43.24;97712.59;6093271;28;96702;-59
2021/08/06 13:45:51;;;;;;;;;3.00;2.00;;;;;25.71;43.13;97708.66;6093006;28;96818;-58
2021/08/06 13:48:54;;;;;;;;;5.00;4.00;;;;;25.91;40.75;97712.38;6092352;28;96521;-59
2021/08/06 13:51:59;;;;;;;;;4.00;3.00;;;;;26.12;40.17;97704.72;6092189;28;97859;-58
2021/08/06 13:55:02;;;;;;;;;3.75;3.75;;;;;26.31;40.24;97710.41;6087813;28;96443;-59
2021/08/06 13:58:06;;;;;;;;;4.00;4.00;;;;;26.45;39.96;97713.56;6084084;28;97246;-57
2021/08/06 14:01:09;;;;;;;;;5.00;4.00;;;;;26.34;39.99;97717.22;6086674;28;97203;-58
2021/08/06 14:04:13;;;;;;;;;4.20;3.20;;;;;26.38;39.12;97735.50;6082749;28;96978;-58
2021/08/06 14:07:17;;;;;;;;;4.00;4.00;;;;;26.46;37.53;97742.00;6078673;28;98023;-59
2021/08/06 14:10:21;;;;;;;;;4.00;4.00;;;;;26.34;36.21;97745.63;6093133;28;97512;-57
2021/08/06 14:13:24;;;;;;;;;1.60;1.60;;;;;26.02;36.76;97744.69;6076821;28;96483;-57
2021/08/06 14:16:28;;;;;;;;;2.40;2.40;;;;;25.73;36.53;97745.00;6092849;28;97571;-57
2021/08/06 14:19:32;;;;;;;;;4.00;4.00;;;;;25.70;37.29;97754.78;6078316;28;96578;-58
2021/08/06 14:22:36;;;;;;;;;4.00;3.60;;;;;25.48;37.83;97763.50;6077068;28;96613;-57
2021/08/06 14:25:40;;;;;;;;;4.00;4.00;;;;;25.44;38.18;97752.38;6082941;28;96974;-58
2021/08/06 14:28:44;;;;;;;;;3.00;3.00;;;;;25.32;37.63;97768.09;6083979;28;96474;-57
2021/08/06 14:31:47;;;;;;;;;4.00;3.60;;;;;25.36;38.31;97767.06;6075424;28;98781;-58
2021/08/06 14:34:50;;;;;;;;;2.20;2.00;;;;;25.49;38.34;97767.09;6088028;28;98624;-57
2021/08/06 14:37:55;;;;;;;;;3.40;3.00;;;;;25.44;38.40;97771.69;6091807;28;96454;-59